ZYTX/SHE METAR and TAF weather

Enter ICAO airport designator
Station Type Date Time Source
ZYTX METAR 2019/06/18 13:30 UTC NOAA

ZYTX 181330Z 12002MPS CAVOK 18/17 Q1007 NOSIG


Station Type Date Time Source
ZYTX Decoded METAR 2019/06/18 13:30 UTC NOAA

Shenyang / Taokian, China (ZYTX) 41-48N 123-24E
Jun 18, 2019 - 09:30 AM EDT / 2019.06.18 1330 UTC
Wind: from the ESE (120 degrees) at 4 MPH (4 KT):0
Visibility: greater than 7 mile(s):0
Temperature: 64 F (18 C)
Dew Point: 62 F (17 C)
Relative Humidity: 93%
Pressure (altimeter): 29.74 in. Hg (1007 hPa)
ob: ZYTX 181330Z 12002MPS CAVOK 18/17 Q1007 NOSIG
cycle: 13

Station Type Date Time Source
ZYTX TAF 2019/06/18 12:03 UTC NOAA

TAF ZYTX 180914Z 1812/1912 15004MPS 6000 NSC TX30/1906Z TN16/1821Z

Example: see airport list